Time;durP1;ratioP1;P1;durP2;ratioP2;P2;SDS_P1;SDS_P2;PMS_P1;PMS_P2;Temp;Humidity;BMP_temperature;BMP_pressure;BME280_temperature;BME280_humidity;BME280_pressure;Samples;Min_cycle;Max_cycle;Signal;HPM_P1;HPM_P2
2021/07/19 00:01:48;;;;;;;11.43;4.32;;;;;;;23.20;61.81;101543.97;5097586;28;20043;-63
2021/07/19 00:04:15;;;;;;;8.73;4.60;;;;;;;23.31;61.29;101544.16;5097011;28;20063;-62
2021/07/19 00:06:42;;;;;;;8.48;4.70;;;;;;;22.94;62.52;101558.03;5096378;28;20415;-62
2021/07/19 00:09:10;;;;;;;11.98;4.72;;;;;;;23.11;62.05;101545.44;5097593;28;20048;-63
2021/07/19 00:11:38;;;;;;;8.25;4.28;;;;;;;23.04;62.15;101546.13;5079483;28;20052;-61
2021/07/19 00:14:05;;;;;;;10.75;4.70;;;;;;;23.12;61.51;101545.03;5078247;28;20056;-62
2021/07/19 00:16:32;;;;;;;8.25;4.63;;;;;;;23.26;61.46;101547.25;5079153;28;20056;-62
2021/07/19 00:19:00;;;;;;;14.27;5.00;;;;;;;22.99;62.22;101542.84;5097165;28;20048;-62
2021/07/19 00:21:27;;;;;;;8.25;4.05;;;;;;;23.11;61.92;101542.63;5062776;28;20052;-64
2021/07/19 00:23:54;;;;;;;10.77;4.50;;;;;;;22.98;62.03;101549.66;5078422;28;20056;-62
2021/07/19 00:26:22;;;;;;;8.10;4.70;;;;;;;22.98;62.32;101552.47;5079302;28;20051;-62
2021/07/19 00:28:50;;;;;;;8.20;4.47;;;;;;;22.63;63.32;101546.25;5097079;28;20522;-63
2021/07/19 00:31:18;;;;;;;8.40;4.30;;;;;;;22.70;63.27;101549.19;5096940;28;20408;-62
2021/07/19 00:33:45;;;;;;;7.13;4.85;;;;;;;22.76;62.81;101542.88;5096963;28;20056;-62
2021/07/19 00:36:12;;;;;;;7.85;4.65;;;;;;;22.72;62.87;101558.00;5096553;28;20118;-62
2021/07/19 00:38:40;;;;;;;11.30;5.25;;;;;;;22.62;63.09;101555.84;5083288;28;20134;-63
2021/07/19 00:41:07;;;;;;;9.80;4.80;;;;;;;22.41;63.79;101552.63;5057106;28;20053;-62
2021/07/19 00:43:34;;;;;;;11.93;5.53;;;;;;;22.51;63.63;101552.03;5057108;28;20032;-62
2021/07/19 00:46:02;;;;;;;8.15;4.97;;;;;;;22.62;63.22;101556.66;5040779;28;20060;-63
2021/07/19 00:48:29;;;;;;;7.38;4.70;;;;;;;22.48;63.71;101552.75;5076219;28;20052;-63
2021/07/19 00:50:56;;;;;;;7.20;4.78;;;;;;;22.32;64.33;101550.06;5042079;28;20048;-62
2021/07/19 00:53:24;;;;;;;10.25;5.30;;;;;;;22.24;64.50;101551.13;5058275;28;20523;-62
2021/07/19 00:55:52;;;;;;;10.25;5.03;;;;;;;22.27;64.66;101555.97;5079392;28;20036;-62
2021/07/19 00:58:20;;;;;;;7.60;5.53;;;;;;;22.26;64.56;101546.72;5061898;28;20573;-63
2021/07/19 01:00:50;;;;;;;8.82;5.13;;;;;;;22.43;64.48;101547.44;5061616;28;20048;-63
2021/07/19 01:03:20;;;;;;;10.18;5.28;;;;;;;22.31;64.47;101552.06;5061063;28;20059;-63
2021/07/19 01:05:49;;;;;;;10.48;5.38;;;;;;;22.20;64.98;101553.84;5077911;28;20052;-63
2021/07/19 01:08:20;;;;;;;9.68;5.10;;;;;;;22.24;64.80;101546.31;5095751;28;20285;-63
2021/07/19 01:10:49;;;;;;;11.13;5.30;;;;;;;22.31;64.82;101542.81;5077183;28;20048;-62
2021/07/19 01:13:19;;;;;;;15.40;5.60;;;;;;;22.28;64.64;101538.75;5076545;28;20122;-62
2021/07/19 01:15:49;;;;;;;8.20;5.18;;;;;;;22.23;64.90;101538.25;5095872;28;20048;-62
2021/07/19 01:18:17;;;;;;;8.70;4.97;;;;;;;22.10;65.34;101536.81;5096016;28;20051;-62
2021/07/19 01:21:06;;;;;;;13.38;5.72;;;;;;;21.97;66.15;101544.56;5096046;28;20058;-62
2021/07/19 01:23:51;;;;;;;;;;;;;;;22.01;65.85;101541.84;5096593;28;20068;-62
2021/07/19 01:26:47;;;;;;;12.23;5.72;;;;;;;21.89;66.33;101545.63;5077737;28;20003;-63
2021/07/19 01:29:17;;;;;;;8.15;5.18;;;;;;;21.94;66.56;101544.50;5061537;28;20052;-63
2021/07/19 01:31:46;;;;;;;9.27;5.28;;;;;;;22.15;65.63;101548.53;5095878;28;20036;-62
2021/07/19 01:34:24;;;;;;;9.65;5.45;;;;;;;22.06;66.09;101544.34;5060911;28;20062;-61
2021/07/19 01:36:55;;;;;;;10.82;5.47;;;;;;;22.06;65.72;101538.72;5077811;28;20059;-61
2021/07/19 01:39:32;;;;;;;10.13;5.65;;;;;;;22.31;65.21;101538.03;5061859;28;20417;-62
2021/07/19 01:42:04;;;;;;;9.05;5.30;;;;;;;22.29;65.03;101531.97;5077610;28;20065;-63
2021/07/19 01:44:33;;;;;;;7.80;5.57;;;;;;;22.56;64.44;101540.50;5077728;28;20055;-61
2021/07/19 01:47:06;;;;;;;9.35;5.45;;;;;;;22.25;65.33;101533.06;5061424;28;20051;-62
2021/07/19 01:49:41;;;;;;;8.98;5.38;;;;;;;22.39;65.01;101538.94;5060453;28;20059;-63
2021/07/19 01:52:11;;;;;;;9.18;5.78;;;;;;;22.30;65.30;101541.19;5077671;28;20056;-64
2021/07/19 01:54:40;;;;;;;9.57;5.47;;;;;;;22.14;65.71;101540.50;5061094;28;20051;-62
2021/07/19 01:57:07;;;;;;;8.45;5.75;;;;;;;22.29;65.40;101537.59;5063730;28;20052;-62
2021/07/19 01:59:44;;;;;;;11.63;6.30;;;;;;;22.32;65.43;101541.63;5057349;28;20045;-61
2021/07/19 02:02:21;;;;;;;12.63;6.25;;;;;;;22.07;66.17;101543.16;5056988;28;20063;-62
2021/07/19 02:04:55;;;;;;;10.10;5.70;;;;;;;22.00;66.35;101543.81;5041376;28;20615;-63
2021/07/19 02:07:25;;;;;;;8.82;6.35;;;;;;;22.08;66.27;101541.97;5057173;28;20052;-62
2021/07/19 02:09:58;;;;;;;9.18;6.45;;;;;;;22.00;66.80;101535.41;5041337;28;20052;-62
2021/07/19 02:12:43;;;;;;;8.68;6.20;;;;;;;22.04;66.87;101544.72;5042908;28;20518;-62
2021/07/19 02:15:17;;;;;;;9.43;6.10;;;;;;;22.13;66.41;101545.28;5056649;28;20056;-62
2021/07/19 02:17:48;;;;;;;9.02;6.30;;;;;;;21.71;68.02;101535.97;5056808;28;20056;-63
2021/07/19 02:20:18;;;;;;;10.98;6.10;;;;;;;22.03;67.23;101542.28;5041066;28;20056;-64
2021/07/19 02:22:49;;;;;;;12.30;7.05;;;;;;;21.98;66.90;101534.16;5056626;28;20071;-63
2021/07/19 02:25:49;;;;;;;;;;;;;;;21.73;68.32;101530.00;5057761;28;20044;-62
2021/07/19 02:28:19;;;;;;;10.15;6.80;;;;;;;21.77;68.01;101534.53;5056718;28;19924;-63
2021/07/19 02:30:47;;;;;;;11.65;6.60;;;;;;;21.79;67.85;101539.78;5040634;28;20044;-62
2021/07/19 02:33:20;;;;;;;10.43;6.63;;;;;;;21.83;67.82;101543.47;5056695;28;20440;-62
2021/07/19 02:35:51;;;;;;;9.88;6.97;;;;;;;21.67;68.39;101542.72;5056342;28;20057;-63
2021/07/19 02:38:23;;;;;;;12.02;6.85;;;;;;;21.67;68.62;101540.69;5056416;28;20055;-63
2021/07/19 02:41:00;;;;;;;10.23;6.20;;;;;;;21.66;68.89;101539.09;5056404;28;20055;-62
2021/07/19 02:43:30;;;;;;;10.82;6.55;;;;;;;21.80;68.35;101541.41;5040306;28;20499;-62
2021/07/19 02:45:59;;;;;;;11.68;7.80;;;;;;;21.57;68.67;101537.66;5056063;28;20052;-62
2021/07/19 02:48:29;;;;;;;9.52;6.53;;;;;;;21.44;69.69;101547.41;5039687;28;20052;-62
2021/07/19 02:50:59;;;;;;;10.35;7.05;;;;;;;21.54;69.48;101550.44;5074223;28;20040;-64
2021/07/19 02:53:30;;;;;;;12.55;7.50;;;;;;;21.37;70.04;101548.06;5039682;28;20059;-62
2021/07/19 02:55:58;;;;;;;9.38;6.75;;;;;;;21.19;70.30;101549.63;5078274;28;20048;-63
2021/07/19 02:58:29;;;;;;;9.65;6.93;;;;;;;21.22;70.46;101546.09;5059310;28;20055;-62
2021/07/19 03:00:58;;;;;;;11.07;6.80;;;;;;;21.31;70.23;101551.50;5076038;28;20067;-63
2021/07/19 03:03:28;;;;;;;10.15;6.43;;;;;;;21.25;70.57;101543.38;5059641;28;20055;-63
2021/07/19 03:06:09;;;;;;;12.30;6.68;;;;;;;21.29;70.42;101542.66;5094312;28;20044;-62
2021/07/19 03:08:39;;;;;;;10.20;6.82;;;;;;;21.49;69.61;101542.31;5059928;28;20491;-63
2021/07/19 03:11:25;;;;;;;11.93;7.13;;;;;;;21.48;69.10;101537.88;5077094;28;20051;-63
2021/07/19 03:13:58;;;;;;;12.52;7.13;;;;;;;21.18;70.37;101537.59;5059794;28;20051;-63
2021/07/19 03:16:27;;;;;;;11.88;7.20;;;;;;;21.12;70.83;101536.28;5076004;28;20063;-62
2021/07/19 03:19:01;;;;;;;10.90;7.13;;;;;;;21.17;70.73;101537.97;5094065;28;20051;-61
2021/07/19 03:21:29;;;;;;;10.77;7.65;;;;;;;21.16;70.57;101541.97;5059457;28;20487;-62
2021/07/19 03:24:09;;;;;;;10.93;7.70;;;;;;;21.48;69.68;101537.88;5060597;28;20040;-62
2021/07/19 03:26:39;;;;;;;10.27;6.97;;;;;;;21.43;69.31;101543.78;5059447;28;20055;-63
2021/07/19 03:29:08;;;;;;;11.30;7.03;;;;;;;21.27;69.93;101536.59;5093824;28;20060;-62
2021/07/19 03:31:47;;;;;;;12.13;7.22;;;;;;;21.37;69.81;101534.03;5060913;28;20051;-63
2021/07/19 03:34:15;;;;;;;12.85;7.50;;;;;;;21.13;70.51;101545.50;5093677;28;20055;-63
2021/07/19 03:36:44;;;;;;;15.65;7.72;;;;;;;20.91;71.78;101535.72;5079907;28;20518;-63
2021/07/19 03:39:13;;;;;;;9.30;7.72;;;;;;;21.06;70.71;101531.31;5079931;28;20530;-62
2021/07/19 03:41:53;;;;;;;15.68;7.05;;;;;;;21.42;69.56;101532.94;5079950;28;20066;-62
2021/07/19 03:44:21;;;;;;;12.23;7.05;;;;;;;21.40;69.36;101532.47;5079394;28;20055;-62
2021/07/19 03:46:49;;;;;;;10.70;7.40;;;;;;;20.88;71.17;101528.06;5063101;28;20055;-62
2021/07/19 03:49:19;;;;;;;11.50;7.82;;;;;;;20.64;72.59;101530.25;5097783;28;20048;-63
2021/07/19 03:51:48;;;;;;;10.80;7.47;;;;;;;20.77;71.75;101524.19;5063533;28;20056;-61
2021/07/19 03:54:16;;;;;;;9.88;7.65;;;;;;;20.85;71.71;101517.56;5063060;28;20055;-62
2021/07/19 03:56:44;;;;;;;10.95;7.70;;;;;;;20.89;71.18;101528.84;5035954;28;20053;-63
2021/07/19 03:59:16;;;;;;;11.95;7.85;;;;;;;20.63;72.37;101526.63;5043548;28;20059;-63
2021/07/19 04:01:43;;;;;;;;;;;;;;;20.62;72.71;101532.59;5059919;28;20056;-61
2021/07/19 04:04:17;;;;;;;16.50;8.10;;;;;;;20.86;71.69;101529.59;5042789;28;19925;-62
2021/07/19 04:06:51;;;;;;;11.48;7.60;;;;;;;20.90;71.09;101530.50;5044214;28;20049;-61
2021/07/19 04:09:20;;;;;;;10.15;7.45;;;;;;;20.76;71.42;101525.38;5043398;28;20056;-62
2021/07/19 04:11:49;;;;;;;10.95;7.57;;;;;;;21.06;70.93;101522.91;5042450;28;20060;-62
2021/07/19 04:14:16;;;;;;;10.85;7.35;;;;;;;20.95;71.10;101525.44;5059437;28;20147;-61
2021/07/19 04:16:47;;;;;;;13.77;7.78;;;;;;;21.08;70.41;101526.97;5076792;28;20052;-61
2021/07/19 04:19:15;;;;;;;10.77;7.30;;;;;;;20.97;70.72;101528.66;5059208;28;20056;-62
2021/07/19 04:21:45;;;;;;;10.48;8.10;;;;;;;20.98;70.52;101521.06;5077102;28;20067;-62
2021/07/19 04:24:20;;;;;;;11.95;7.60;;;;;;;20.91;71.08;101515.31;5043656;28;20499;-61
2021/07/19 04:26:48;;;;;;;9.77;6.90;;;;;;;21.03;70.72;101523.63;5077461;28;20052;-62
2021/07/19 04:29:22;;;;;;;12.13;7.47;;;;;;;20.92;70.64;101526.16;5059057;28;20067;-62
2021/07/19 04:31:56;;;;;;;12.60;7.65;;;;;;;21.11;70.79;101528.25;5058847;28;20048;-62
2021/07/19 04:34:29;;;;;;;11.07;8.00;;;;;;;21.32;69.51;101520.31;5076682;28;20055;-63
2021/07/19 04:37:05;;;;;;;11.55;7.22;;;;;;;21.31;69.42;101529.06;5058567;28;20063;-62
2021/07/19 04:39:38;;;;;;;12.88;8.52;;;;;;;20.64;71.92;101536.63;5058847;28;20053;-62
2021/07/19 04:42:09;;;;;;;12.65;7.65;;;;;;;20.74;71.60;101526.91;5058673;28;20079;-62
2021/07/19 04:44:37;;;;;;;14.02;7.85;;;;;;;20.95;71.26;101524.63;5076652;28;20044;-62
2021/07/19 04:47:04;;;;;;;11.50;7.30;;;;;;;21.18;70.40;101523.59;5076297;28;20060;-57
2021/07/19 04:49:35;;;;;;;12.35;7.55;;;;;;;20.83;71.07;101525.53;5076388;28;20044;-57
2021/07/19 04:52:03;;;;;;;;;;;;;;;20.98;71.03;101521.06;5058525;28;20599;-62
2021/07/19 04:54:38;;;;;;;12.82;7.90;;;;;;;20.99;70.74;101519.94;5076354;28;20454;-62
2021/07/19 04:57:08;;;;;;;16.05;7.90;;;;;;;21.01;70.75;101520.38;5089871;28;20048;-62
2021/07/19 04:59:39;;;;;;;14.60;7.80;;;;;;;20.75;71.76;101520.09;5078647;28;20052;-62
2021/07/19 05:02:10;;;;;;;13.73;7.97;;;;;;;20.93;70.82;101521.38;5078486;28;20048;-62
2021/07/19 05:04:38;;;;;;;15.38;8.45;;;;;;;20.67;72.12;101535.13;5061557;28;20056;-62
2021/07/19 05:07:07;;;;;;;10.30;7.72;;;;;;;21.03;71.25;101524.44;5078196;28;20048;-62
2021/07/19 05:09:34;;;;;;;15.93;8.40;;;;;;;21.20;70.17;101528.81;5078541;28;20052;-62
2021/07/19 05:12:03;;;;;;;13.50;7.68;;;;;;;21.21;70.21;101536.06;5078325;28;20412;-62
2021/07/19 05:14:30;;;;;;;13.50;8.05;;;;;;;21.05;70.09;101533.31;5078331;28;20036;-62
2021/07/19 05:16:57;;;;;;;13.90;8.48;;;;;;;21.41;68.91;101537.72;5095982;28;20048;-63
2021/07/19 05:19:25;;;;;;;11.38;7.72;;;;;;;21.43;69.04;101538.16;5078301;28;20036;-62
2021/07/19 05:21:53;;;;;;;14.15;8.23;;;;;;;20.73;71.32;101534.47;5096147;28;20059;-62
2021/07/19 05:24:30;;;;;;;11.73;8.63;;;;;;;20.31;73.53;101535.38;5078227;28;20048;-63
2021/07/19 05:26:57;;;;;;;11.93;7.72;;;;;;;20.66;72.22;101541.91;5061480;28;20415;-63
2021/07/19 05:29:25;;;;;;;12.85;8.45;;;;;;;20.57;72.72;101542.09;5077936;28;20435;-62
2021/07/19 05:31:52;;;;;;;12.15;8.30;;;;;;;20.84;71.63;101531.94;5095605;28;20143;-63
2021/07/19 05:34:20;;;;;;;10.77;7.30;;;;;;;21.02;70.86;101536.03;5095513;28;20040;-63
2021/07/19 05:36:48;;;;;;;13.52;8.00;;;;;;;21.10;70.39;101546.22;5077398;28;20055;-63
2021/07/19 05:39:15;;;;;;;12.00;8.10;;;;;;;21.10;70.37;101547.03;5095944;28;20048;-64
2021/07/19 05:41:42;;;;;;;13.23;8.25;;;;;;;20.72;72.01;101546.03;5095136;28;20055;-61
2021/07/19 05:44:10;;;;;;;12.80;8.43;;;;;;;21.04;70.98;101537.25;5077308;28;20048;-61
2021/07/19 05:46:38;;;;;;;15.05;8.98;;;;;;;20.58;72.18;101546.50;5095189;28;20055;-62
2021/07/19 05:49:05;;;;;;;11.52;9.25;;;;;;;20.56;72.82;101551.63;5095256;28;20422;-62
2021/07/19 05:51:33;;;;;;;16.23;8.45;;;;;;;20.74;71.98;101552.09;5095764;28;20071;-62
2021/07/19 05:54:01;;;;;;;11.80;8.45;;;;;;;20.69;72.08;101556.00;5077229;28;20730;-62
2021/07/19 05:56:30;;;;;;;13.18;9.27;;;;;;;20.84;71.58;101543.13;5082342;28;20040;-62
2021/07/19 05:58:58;;;;;;;12.30;8.23;;;;;;;21.17;70.34;101541.59;5082663;28;20510;-62
2021/07/19 06:01:25;;;;;;;15.57;8.55;;;;;;;21.58;69.33;101530.88;5057183;28;20063;-63
2021/07/19 06:03:53;;;;;;;12.65;8.57;;;;;;;21.38;69.31;101541.25;5057900;28;20491;-63
2021/07/19 06:06:20;;;;;;;13.68;8.05;;;;;;;21.29;69.63;101528.66;5054886;28;20049;-62
2021/07/19 06:08:47;;;;;;;12.88;8.75;;;;;;;21.44;69.11;101531.41;5037074;28;20495;-62
2021/07/19 06:11:14;;;;;;;12.10;8.35;;;;;;;21.70;68.28;101527.94;5054791;28;20055;-63
2021/07/19 06:13:42;;;;;;;15.43;8.82;;;;;;;21.62;68.48;101526.97;5054999;28;20427;-64
2021/07/19 06:16:09;;;;;;;14.07;8.70;;;;;;;21.82;67.51;101533.44;5054691;28;20108;-62
2021/07/19 06:18:37;;;;;;;14.38;8.23;;;;;;;21.90;67.43;101535.19;5056858;28;20063;-62
2021/07/19 06:21:04;;;;;;;13.70;9.23;;;;;;;22.02;66.67;101535.06;5074762;28;20047;-62
2021/07/19 06:23:32;;;;;;;12.68;8.32;;;;;;;21.32;68.96;101533.50;5074630;28;20052;-62
2021/07/19 06:25:59;;;;;;;13.20;8.80;;;;;;;21.23;69.72;101533.72;5074722;28;20056;-63
2021/07/19 06:28:26;;;;;;;13.15;9.60;;;;;;;20.97;71.06;101537.06;5051220;28;20064;-62
2021/07/19 06:30:54;;;;;;;11.95;9.10;;;;;;;21.24;69.86;101538.97;5042593;28;20522;-62
2021/07/19 06:33:21;;;;;;;17.48;9.05;;;;;;;21.48;68.96;101539.88;5067203;28;20515;-63
2021/07/19 06:35:48;;;;;;;12.98;8.70;;;;;;;21.62;68.72;101534.59;5056914;28;20052;-62
2021/07/19 06:38:15;;;;;;;15.75;8.90;;;;;;;21.69;68.67;101531.94;5028009;28;20570;-62
2021/07/19 06:40:43;;;;;;;18.05;8.40;;;;;;;21.69;68.30;101537.53;5073018;28;20048;-63
2021/07/19 06:43:10;;;;;;;14.63;9.25;;;;;;;21.75;67.74;101522.84;5071273;28;20060;-63
2021/07/19 06:45:37;;;;;;;13.68;9.60;;;;;;;21.96;67.56;101534.53;5054425;28;20044;-64
2021/07/19 06:48:05;;;;;;;16.52;9.02;;;;;;;21.77;67.56;101531.72;5053584;28;20496;-64
2021/07/19 06:50:32;;;;;;;14.57;8.75;;;;;;;21.88;67.64;101531.97;5058352;28;20400;-64
2021/07/19 06:53:00;;;;;;;21.50;8.55;;;;;;;21.87;67.32;101531.16;5063006;28;20053;-64
2021/07/19 06:55:27;;;;;;;17.33;9.98;;;;;;;21.95;66.85;101532.91;5069265;28;20055;-64
2021/07/19 06:57:54;;;;;;;13.50;9.02;;;;;;;22.11;66.90;101527.19;5053786;28;20053;-64
2021/07/19 07:00:21;;;;;;;16.67;8.68;;;;;;;22.23;66.08;101527.03;5053242;28;20051;-63
2021/07/19 07:02:48;;;;;;;13.32;8.85;;;;;;;22.05;66.59;101523.09;5036153;28;20052;-64
2021/07/19 07:05:16;;;;;;;15.57;8.68;;;;;;;22.06;66.44;101516.28;5036223;28;20721;-63
2021/07/19 07:07:44;;;;;;;14.38;8.98;;;;;;;22.09;66.41;101530.38;5053473;28;20150;-64
2021/07/19 07:10:11;;;;;;;16.73;9.10;;;;;;;21.90;66.49;101527.59;5052333;28;20048;-64
2021/07/19 07:12:39;;;;;;;19.40;9.20;;;;;;;22.22;65.81;101522.59;5054171;28;20056;-64
2021/07/19 07:15:07;;;;;;;16.20;9.35;;;;;;;22.44;65.01;101524.59;5053258;28;20500;-65
2021/07/19 07:17:35;;;;;;;15.95;9.43;;;;;;;22.39;65.16;101526.94;5053573;28;20060;-64
2021/07/19 07:20:02;;;;;;;19.38;8.98;;;;;;;21.99;66.52;101527.34;5053452;28;20060;-64
2021/07/19 07:22:30;;;;;;;17.27;8.55;;;;;;;22.13;66.13;101522.84;5053813;28;20500;-64
2021/07/19 07:24:57;;;;;;;17.50;8.35;;;;;;;22.54;64.94;101526.00;5062222;28;20048;-64
2021/07/19 07:27:24;;;;;;;13.77;8.93;;;;;;;22.77;63.96;101524.03;5064016;28;20060;-64
2021/07/19 07:29:52;;;;;;;28.25;7.63;;;;;;;23.43;72.21;101527.06;5059318;28;20049;-38
2021/07/19 07:32:19;;;;;;;18.00;7.05;;;;;;;24.22;68.41;101522.00;5063821;28;20053;-39
2021/07/19 07:34:46;;;;;;;21.73;7.47;;;;;;;24.28;62.51;101521.31;5054969;28;20048;-38
2021/07/19 07:37:13;;;;;;;17.67;6.60;;;;;;;24.49;64.63;101518.69;5081440;28;20048;-39
2021/07/19 07:39:42;;;;;;;22.02;7.57;;;;;;;24.55;63.52;101523.97;5063011;28;20614;-39
2021/07/19 07:42:11;;;;;;;13.80;6.50;;;;;;;24.71;58.63;101521.69;5080962;28;20048;-40
2021/07/19 07:44:38;;;;;;;17.67;6.30;;;;;;;25.10;56.52;101522.81;5063004;28;20041;-38
2021/07/19 07:47:08;;;;;;;9.80;6.13;;;;;;;24.96;55.01;101526.34;5081225;28;20052;-39
2021/07/19 07:49:40;;;;;;;15.02;6.32;;;;;;;25.25;55.25;101516.88;5079820;28;20052;-40
2021/07/19 07:52:09;;;;;;;14.43;5.90;;;;;;;25.36;56.10;101514.13;5080591;28;20061;-40
2021/07/19 07:54:37;;;;;;;13.50;6.55;;;;;;;25.67;53.81;101515.50;5081832;28;20059;-39
2021/07/19 07:57:05;;;;;;;14.82;6.60;;;;;;;25.78;52.34;101510.72;5080564;28;20049;-39
2021/07/19 07:59:32;;;;;;;11.82;6.10;;;;;;;25.64;52.91;101514.31;5080926;28;20040;-38
2021/07/19 08:02:00;;;;;;;14.23;6.15;;;;;;;25.72;54.24;101513.13;5063179;28;20063;-40
2021/07/19 08:04:29;;;;;;;16.77;6.10;;;;;;;25.84;51.83;101506.31;5081889;28;20509;-39
2021/07/19 08:06:58;;;;;;;16.38;6.22;;;;;;;25.78;51.57;101502.25;5081812;28;20410;-39
2021/07/19 08:09:26;;;;;;;14.20;6.45;;;;;;;25.96;50.36;101503.13;5080514;28;20048;-39
2021/07/19 08:11:54;;;;;;;17.33;5.63;;;;;;;25.77;49.98;101495.00;5081473;28;20676;-38
2021/07/19 08:14:23;;;;;;;13.25;5.50;;;;;;;25.93;48.79;101504.72;5063778;28;20055;-39
2021/07/19 08:16:50;;;;;;;17.10;6.43;;;;;;;25.52;50.36;101500.53;5081973;28;20044;-39
2021/07/19 08:19:17;;;;;;;13.05;5.07;;;;;;;25.47;49.26;101506.56;5080425;28;20048;-38
2021/07/19 08:21:45;;;;;;;18.95;5.05;;;;;;;25.40;50.45;101498.84;5064702;28;20052;-39
2021/07/19 08:24:12;;;;;;;13.70;5.03;;;;;;;25.55;52.34;101496.91;5085463;28;20058;-39
2021/07/19 08:26:39;;;;;;;11.63;4.57;;;;;;;25.51;49.27;101498.91;5085028;28;20041;-38
2021/07/19 08:29:07;;;;;;;17.98;4.97;;;;;;;25.48;51.11;101494.06;5084119;28;20055;-38
2021/07/19 08:31:35;;;;;;;16.77;5.05;;;;;;;25.53;48.34;101491.69;5085683;28;20049;-39
2021/07/19 08:34:04;;;;;;;11.13;4.43;;;;;;;25.30;48.35;101493.13;5064834;28;20385;-40
2021/07/19 08:36:31;;;;;;;11.15;4.68;;;;;;;25.49;49.50;101502.13;5066424;28;20048;-39
2021/07/19 08:38:59;;;;;;;14.88;5.25;;;;;;;25.42;48.17;101496.44;5085205;28;20056;-39
2021/07/19 08:41:26;;;;;;;12.90;5.03;;;;;;;25.49;51.31;101498.50;5085231;28;20399;-38
2021/07/19 08:43:54;;;;;;;16.85;5.35;;;;;;;25.63;50.49;101501.38;5067426;28;20052;-38
2021/07/19 08:46:21;;;;;;;12.63;5.00;;;;;;;25.48;48.75;101499.72;5065837;28;20380;-38
2021/07/19 08:48:52;;;;;;;13.82;4.93;;;;;;;25.69;48.21;101496.97;5083555;28;20052;-39
2021/07/19 08:51:20;;;;;;;16.55;4.80;;;;;;;25.64;48.14;101505.03;5082858;28;20498;-39
2021/07/19 08:53:48;;;;;;;13.23;4.90;;;;;;;25.35;49.72;101493.56;5083646;28;20419;-38
2021/07/19 08:56:15;;;;;;;13.75;5.18;;;;;;;25.44;49.80;101491.22;5084001;28;20063;-38
2021/07/19 08:58:43;;;;;;;13.07;4.88;;;;;;;25.36;48.54;101495.22;5066826;28;20051;-40
2021/07/19 09:01:12;;;;;;;14.23;5.05;;;;;;;25.35;47.79;101498.41;5084280;28;20124;-38
2021/07/19 09:03:40;;;;;;;10.70;4.10;;;;;;;25.28;47.92;101482.25;5085047;28;20052;-38
2021/07/19 09:06:11;;;;;;;16.88;4.80;;;;;;;25.39;49.43;101490.78;5082792;28;20634;-39
2021/07/19 09:08:52;;;;;;;14.75;4.47;;;;;;;25.45;47.42;101478.72;5081874;28;20063;-39
2021/07/19 09:11:21;;;;;;;11.45;4.53;;;;;;;25.48;46.70;101486.41;5081624;28;20072;-39
2021/07/19 09:13:57;;;;;;;12.90;4.50;;;;;;;25.34;46.65;101482.69;5066878;28;20049;-38
2021/07/19 09:16:25;;;;;;;19.42;5.55;;;;;;;25.34;48.48;101483.50;5082933;28;20052;-58
2021/07/19 09:19:26;;;;;;;11.70;4.45;;;;;;;25.54;46.19;101481.22;5084232;28;20052;-55
2021/07/19 09:21:58;;;;;;;11.52;4.28;;;;;;;25.79;44.59;101473.63;5065259;28;20056;-37
2021/07/19 09:24:27;;;;;;;12.95;4.20;;;;;;;25.95;44.67;101476.09;5084243;28;20524;-37
2021/07/19 09:26:56;;;;;;;12.27;4.30;;;;;;;25.65;45.85;101482.03;5081610;28;20059;-37
2021/07/19 09:29:25;;;;;;;14.05;4.97;;;;;;;25.50;45.26;101481.19;5082127;28;20056;-37
2021/07/19 09:31:53;;;;;;;10.60;4.25;;;;;;;25.56;46.28;101476.78;5083008;28;20067;-37
2021/07/19 09:34:29;;;;;;;14.43;4.20;;;;;;;25.76;45.24;101474.44;5082910;28;20052;-36
2021/07/19 09:37:06;;;;;;;13.18;4.65;;;;;;;25.84;45.27;101478.88;5083376;28;20214;-37
2021/07/19 09:39:54;;;;;;;11.77;4.30;;;;;;;25.89;45.59;101472.06;5082788;28;20044;-38
2021/07/19 09:42:26;;;;;;;12.93;4.78;;;;;;;25.78;45.87;101477.66;5083930;28;20059;-38
2021/07/19 09:44:56;;;;;;;11.57;4.30;;;;;;;25.83;45.64;101477.28;5081972;28;20052;-38
2021/07/19 09:47:37;;;;;;;12.75;4.35;;;;;;;25.74;45.40;101467.56;5082982;28;20048;-38
2021/07/19 09:50:09;;;;;;;12.18;4.50;;;;;;;25.94;45.42;101466.84;5083507;28;20069;-38
2021/07/19 09:52:36;;;;;;;12.77;4.38;;;;;;;26.15;45.04;101463.28;5081760;28;20060;-38
2021/07/19 09:55:04;;;;;;;11.63;4.40;;;;;;;26.28;44.45;101470.13;5080875;28;20048;-38
2021/07/19 09:57:31;;;;;;;13.65;4.28;;;;;;;26.07;45.07;101448.31;5082577;28;20032;-38
2021/07/19 09:59:59;;;;;;;13.52;4.38;;;;;;;26.15;44.88;101454.78;5082023;28;20049;-37
2021/07/19 10:02:44;;;;;;;11.68;4.63;;;;;;;26.07;45.16;101451.16;5081125;28;20048;-37
2021/07/19 10:05:29;;;;;;;15.80;4.50;;;;;;;26.24;44.50;101449.56;5082559;28;20059;-44
2021/07/19 10:07:59;;;;;;;14.73;4.85;;;;;;;26.53;44.37;101454.81;5082013;28;20054;-38
2021/07/19 10:10:35;;;;;;;16.10;4.65;;;;;;;26.30;44.66;101450.75;5081333;28;20048;-37
2021/07/19 10:13:03;;;;;;;11.30;4.72;;;;;;;26.23;45.27;101456.41;5081546;28;20063;-37
2021/07/19 10:15:32;;;;;;;13.10;4.80;;;;;;;26.46;44.68;101442.72;5083197;28;20059;-37
2021/07/19 10:18:03;;;;;;;11.38;4.25;;;;;;;26.59;43.87;101458.84;5064526;28;20506;-37
2021/07/19 10:20:31;;;;;;;10.27;4.15;;;;;;;26.36;45.07;101452.00;5079793;28;20084;-36
2021/07/19 10:22:58;;;;;;;8.68;4.72;;;;;;;26.41;44.56;101455.19;5082483;28;20052;-37
2021/07/19 10:25:25;;;;;;;10.65;4.50;;;;;;;26.39;44.79;101448.34;5083502;28;20052;-38
2021/07/19 10:27:53;;;;;;;12.13;4.40;;;;;;;26.48;44.08;101443.91;5082841;28;20047;-38
2021/07/19 10:30:21;;;;;;;9.55;4.78;;;;;;;26.56;44.24;101447.53;5064754;28;20063;-38
2021/07/19 10:32:48;;;;;;;10.88;4.55;;;;;;;26.72;44.16;101445.13;5082816;28;20067;-38
2021/07/19 10:35:16;;;;;;;9.00;4.47;;;;;;;26.82;43.55;101435.03;5081522;28;20047;-38
2021/07/19 10:37:58;;;;;;;11.68;4.60;;;;;;;26.77;43.67;101452.41;5064860;28;20094;-39
2021/07/19 10:40:28;;;;;;;11.15;4.72;;;;;;;26.82;43.86;101452.78;5082014;28;20047;-36
2021/07/19 10:43:05;;;;;;;;;;;;;;;26.85;43.74;101431.41;5064661;28;20056;-39
2021/07/19 10:46:11;;;;;;;15.35;4.75;;;;;;;26.80;43.38;101435.44;5081544;28;19920;-37
2021/07/19 10:48:41;;;;;;;13.57;4.68;;;;;;;26.76;43.35;101428.19;5082839;28;20051;-38
2021/07/19 10:51:18;;;;;;;;;;;;;;;26.78;43.67;101439.91;5083755;28;20052;-37
2021/07/19 10:53:46;;;;;;;12.98;4.65;;;;;;;26.77;43.38;101429.78;5082147;28;19931;-36
2021/07/19 10:56:14;;;;;;;10.23;4.82;;;;;;;26.89;43.11;101432.19;5063276;28;20051;-37
2021/07/19 10:58:50;;;;;;;14.38;4.93;;;;;;;26.88;42.74;101422.09;5081859;28;20067;-36
2021/07/19 11:01:28;;;;;;;11.85;5.03;;;;;;;26.94;43.16;101421.25;5064611;28;20047;-37
2021/07/19 11:03:59;;;;;;;12.27;4.88;;;;;;;26.67;43.70;101423.72;5063136;28;20052;-38
2021/07/19 11:06:38;;;;;;;9.20;4.82;;;;;;;26.79;43.48;101416.06;5078843;28;20044;-37
2021/07/19 11:09:07;;;;;;;8.73;4.65;;;;;;;27.06;42.93;101415.16;5080656;28;20070;-36
2021/07/19 11:11:40;;;;;;;10.80;4.63;;;;;;;27.21;42.73;101418.75;5081541;28;20040;-37
2021/07/19 11:14:19;;;;;;;11.18;4.65;;;;;;;27.33;42.34;101424.00;5064761;28;20048;-37
2021/07/19 11:16:50;;;;;;;9.93;4.55;;;;;;;27.05;41.98;101418.41;5081477;28;20048;-37
2021/07/19 11:19:36;;;;;;;12.77;5.00;;;;;;;27.19;41.75;101409.88;5080940;28;20059;-37
2021/07/19 11:22:07;;;;;;;10.27;4.20;;;;;;;27.39;41.46;101422.38;5081991;28;20047;-36
2021/07/19 11:24:44;;;;;;;10.05;4.75;;;;;;;27.21;42.17;101424.44;5080947;28;20052;-36
2021/07/19 11:27:13;;;;;;;13.68;4.90;;;;;;;27.28;42.59;101425.22;5081357;28;20044;-38
2021/07/19 11:29:41;;;;;;;10.27;4.55;;;;;;;27.43;41.92;101418.31;5080575;28;20044;-37
2021/07/19 11:32:19;;;;;;;11.18;4.80;;;;;;;27.54;42.44;101409.75;5080490;28;20057;-37
2021/07/19 11:34:47;;;;;;;10.52;5.15;;;;;;;27.67;41.96;101408.88;5061497;28;20052;-36